KNMM

Meridian NAS / Mc Cain Field Airport

Meridian, Mississippi, USA
METAR KNMM 212007Z 15009KT 10SM CLR 23/08 A3010 RMK AO2 T02280083
Observed Flight Rules
Jan-21 @ 20:07 UTC (21 minutes ago) Visual Flight Rules
Wind Visibility Clouds
150° at 9 knots 10 miles
  • Clear skies
Temperatures Readings
Current 23°C / 73°F
Dewpoint 8°C / 46°F
Humidity 38%
Altimeter 30.1" Hg
Pressure 1019 hPa
Elevation 97
METAR KNMM 212007Z 15009KT 10SM CLR 23/08 A3010 RMK AO2 T02280083
Observed Flight Rules
Jan-21 @ 20:07 UTC
(21 minutes ago)
VFR
Wind Visibility
150° at 9 knots 10 miles
Clouds
  • Clear skies
Temperature Dewpoint
23°C / 73°F 8°C / 46°F
Humidity Altimeter Pressure
38% 30.1" Hg 1019 hPa